Time;durP1;ratioP1;P1;durP2;ratioP2;P2;SDS_P1;SDS_P2;PMS_P1;PMS_P2;Temp;Humidity;BMP_temperature;BMP_pressure;BME280_temperature;BME280_humidity;BME280_pressure;Samples;Min_cycle;Max_cycle;Signal;HPM_P1;HPM_P2
2022/11/13 00:02:00;;;;;;;107.45;73.78;;;8.50;99.90;;;;;;5055035;28;20052;-61
2022/11/13 00:04:26;;;;;;;110.75;74.07;;;8.50;99.90;;;;;;5054940;28;20059;-69
2022/11/13 00:06:51;;;;;;;176.70;113.97;;;8.30;99.90;;;;;;5054101;28;20029;-66
2022/11/13 00:09:17;;;;;;;112.88;72.88;;;8.00;99.90;;;;;;5054794;28;20025;-63
2022/11/13 00:11:42;;;;;;;89.30;62.38;;;7.90;99.90;;;;;;5054720;28;20021;-69
2022/11/13 00:14:08;;;;;;;86.63;59.72;;;7.90;99.90;;;;;;5054845;28;20479;-68
2022/11/13 00:16:34;;;;;;;102.97;68.20;;;8.00;99.90;;;;;;5054834;28;20032;-65
2022/11/13 00:18:59;;;;;;;94.30;67.43;;;8.10;99.90;;;;;;5054747;28;20034;-68
2022/11/13 00:21:26;;;;;;;105.25;69.07;;;8.10;99.90;;;;;;5054884;28;20100;-64
2022/11/13 00:23:52;;;;;;;95.22;68.03;;;8.20;99.90;;;;;;5054693;28;20430;-65
2022/11/13 00:26:20;;;;;;;126.22;85.07;;;8.20;99.90;;;;;;5054433;28;20025;-62
2022/11/13 00:28:50;;;;;;;119.10;80.45;;;8.00;99.90;;;;;;5054654;28;20018;-64
2022/11/13 00:31:16;;;;;;;96.25;67.63;;;7.90;99.90;;;;;;5054603;28;20080;-66
2022/11/13 00:33:42;;;;;;;91.05;60.05;;;7.80;99.90;;;;;;5054448;28;20034;-65
2022/11/13 00:36:12;;;;;;;79.20;55.38;;;7.90;99.90;;;;;;5054602;28;20048;-65
2022/11/13 00:38:38;;;;;;;68.97;50.42;;;7.90;99.90;;;;;;5054458;28;20029;-66
2022/11/13 00:41:04;;;;;;;69.45;50.42;;;7.90;99.90;;;;;;5054094;28;20048;-66
2022/11/13 00:43:30;;;;;;;85.32;57.97;;;8.00;99.90;;;;;;5054284;28;20478;-68
2022/11/13 00:45:56;;;;;;;87.32;60.35;;;8.00;99.90;;;;;;5054377;28;20387;-67
2022/11/13 00:48:22;;;;;;;89.05;59.70;;;7.90;99.90;;;;;;5054199;28;20490;-69
2022/11/13 00:50:48;;;;;;;97.13;68.50;;;7.80;99.90;;;;;;5054166;28;20017;-66
2022/11/13 00:53:14;;;;;;;71.10;50.55;;;7.60;99.90;;;;;;5054220;28;20021;-67
2022/11/13 00:55:44;;;;;;;70.90;51.08;;;7.60;99.90;;;;;;5054231;28;20105;-67
2022/11/13 00:58:11;;;;;;;65.07;45.85;;;7.60;99.90;;;;;;5054186;28;20025;-66
2022/11/13 01:00:37;;;;;;;56.70;40.95;;;7.70;99.90;;;;;;5054050;28;20075;-64
2022/11/13 01:03:03;;;;;;;52.67;37.38;;;7.70;99.90;;;;;;5053740;28;20029;-62
2022/11/13 01:05:28;;;;;;;51.20;35.75;;;7.70;99.90;;;;;;5054022;28;20025;-69
2022/11/13 01:07:54;;;;;;;45.63;34.05;;;7.80;99.90;;;;;;5053720;28;20398;-64
2022/11/13 01:10:20;;;;;;;43.90;32.88;;;7.90;99.90;;;;;;5053535;28;20087;-66
2022/11/13 01:12:46;;;;;;;41.97;30.10;;;7.90;99.90;;;;;;5053753;28;20048;-67
2022/11/13 01:15:11;;;;;;;39.72;28.88;;;7.90;99.90;;;;;;5053745;28;20431;-64
2022/11/13 01:17:37;;;;;;;50.38;35.88;;;7.80;99.90;;;;;;5053745;28;20037;-64
2022/11/13 01:20:03;;;;;;;43.00;29.98;;;7.70;99.90;;;;;;5053642;28;20384;-66
2022/11/13 01:22:29;;;;;;;36.53;27.02;;;7.70;99.90;;;;;;5053537;28;20021;-67
2022/11/13 01:24:55;;;;;;;33.75;26.27;;;7.70;99.90;;;;;;5053517;28;20033;-62
2022/11/13 01:27:21;;;;;;;36.58;26.27;;;7.70;99.90;;;;;;5053462;28;20100;-62
2022/11/13 01:29:46;;;;;;;40.88;27.98;;;7.80;99.90;;;;;;5053494;28;20099;-62
2022/11/13 01:32:12;;;;;;;42.50;30.23;;;7.80;99.90;;;;;;5052346;28;20024;-66
2022/11/13 01:34:38;;;;;;;48.15;35.03;;;7.70;99.90;;;;;;5053288;28;20043;-66
2022/11/13 01:37:04;;;;;;;35.67;27.65;;;7.60;99.90;;;;;;5053524;28;20021;-64
2022/11/13 01:39:30;;;;;;;46.63;33.20;;;7.60;99.90;;;;;;5053400;28;20021;-67
2022/11/13 01:41:55;;;;;;;37.63;26.80;;;7.60;99.90;;;;;;5053709;28;20110;-67
2022/11/13 01:44:21;;;;;;;32.50;24.67;;;7.50;99.90;;;;;;5053163;28;20071;-66
2022/11/13 01:46:49;;;;;;;31.70;23.35;;;7.60;99.90;;;;;;5053366;28;20029;-62
2022/11/13 01:49:20;;;;;;;30.42;22.35;;;7.50;99.90;;;;;;5053328;28;20079;-64
2022/11/13 01:51:56;;;;;;;27.67;20.55;;;7.60;99.90;;;;;;5052892;28;20561;-67
2022/11/13 01:54:26;;;;;;;25.27;18.90;;;7.60;99.90;;;;;;5053203;28;20033;-65
2022/11/13 01:56:53;;;;;;;24.20;18.13;;;7.60;99.90;;;;;;5053152;28;20408;-65
2022/11/13 01:59:22;;;;;;;24.55;18.08;;;7.60;99.90;;;;;;5053215;28;20017;-69
2022/11/13 02:01:48;;;;;;;47.00;33.25;;;7.60;99.90;;;;;;5053123;28;20021;-64
2022/11/13 02:04:14;;;;;;;37.20;27.92;;;7.40;99.90;;;;;;5052886;28;20083;-63
2022/11/13 02:06:51;;;;;;;36.95;28.85;;;7.40;99.90;;;;;;5052940;28;20028;-66
2022/11/13 02:09:20;;;;;;;43.33;31.65;;;7.30;99.90;;;;;;5053125;28;20043;-66
2022/11/13 02:11:45;;;;;;;57.70;43.22;;;7.30;99.90;;;;;;5053195;28;20024;-66
2022/11/13 02:14:13;;;;;;;46.00;32.58;;;7.10;99.90;;;;;;5053019;28;20033;-64
2022/11/13 02:16:42;;;;;;;45.65;32.28;;;7.00;99.90;;;;;;5052890;28;20029;-67
2022/11/13 02:19:16;;;;;;;43.53;31.02;;;7.10;99.90;;;;;;5052918;28;20112;-68
2022/11/13 02:22:05;;;;;;;35.40;26.25;;;7.10;99.90;;;;;;5052845;28;20025;-69
2022/11/13 02:24:40;;;;;;;37.80;26.13;;;7.10;99.90;;;;;;5052804;28;20029;-65
2022/11/13 02:27:12;;;;;;;34.17;24.33;;;7.20;99.90;;;;;;5052916;28;20375;-68
2022/11/13 02:29:37;;;;;;;33.33;23.00;;;7.20;99.90;;;;;;5052943;28;20017;-69
2022/11/13 02:32:03;;;;;;;62.25;34.28;;;7.20;99.90;;;;;;5056872;28;20471;-67
2022/11/13 02:34:29;;;;;;;27.52;20.45;;;7.20;99.90;;;;;;5056726;28;20049;-69
2022/11/13 02:36:54;;;;;;;31.27;23.35;;;7.20;99.90;;;;;;5056483;28;20082;-64
2022/11/13 02:39:20;;;;;;;31.40;22.65;;;7.10;99.90;;;;;;5056622;28;20067;-66
2022/11/13 02:41:46;;;;;;;45.90;31.27;;;7.20;99.90;;;;;;5056631;28;20067;-69
2022/11/13 02:44:11;;;;;;;58.83;38.03;;;7.10;99.90;;;;;;5056430;28;20029;-68
2022/11/13 02:46:37;;;;;;;48.58;33.05;;;7.00;99.90;;;;;;5056530;28;20021;-67
2022/11/13 02:49:03;;;;;;;102.07;47.22;;;7.00;99.90;;;;;;5056545;28;20017;-67
2022/11/13 02:51:29;;;;;;;41.28;31.00;;;7.10;99.90;;;;;;5056133;28;20017;-69
2022/11/13 02:53:55;;;;;;;46.75;30.95;;;7.10;99.90;;;;;;5056481;28;20112;-65
2022/11/13 02:56:20;;;;;;;54.00;32.55;;;7.20;99.90;;;;;;5056260;28;20098;-68
2022/11/13 02:58:46;;;;;;;49.53;31.25;;;7.20;99.90;;;;;;5056301;28;20477;-67
2022/11/13 03:01:12;;;;;;;200.43;62.97;;;7.30;99.90;;;;;;5056185;28;20021;-66
2022/11/13 03:03:37;;;;;;;45.50;33.75;;;7.30;99.90;;;;;;5056172;28;20029;-65
2022/11/13 03:06:03;;;;;;;45.90;32.90;;;7.10;99.90;;;;;;5055991;28;20086;-64
2022/11/13 03:08:29;;;;;;;56.17;30.80;;;7.10;99.90;;;;;;5056017;28;20028;-62
2022/11/13 03:10:55;;;;;;;134.05;46.10;;;7.10;99.90;;;;;;5055947;28;20124;-64
2022/11/13 03:13:21;;;;;;;45.70;30.08;;;7.00;99.90;;;;;;5056106;28;20105;-67
2022/11/13 03:15:46;;;;;;;44.40;29.60;;;6.90;99.90;;;;;;5054561;28;20495;-67
2022/11/13 03:18:12;;;;;;;37.03;26.25;;;7.00;99.90;;;;;;5056021;28;20024;-64
2022/11/13 03:20:42;;;;;;;71.68;30.92;;;7.00;99.90;;;;;;5055791;28;20025;-64
2022/11/13 03:23:08;;;;;;;99.82;38.22;;;7.00;99.90;;;;;;5055827;28;20025;-64
2022/11/13 03:25:34;;;;;;;37.47;28.58;;;7.00;99.90;;;;;;5055940;28;20367;-65
2022/11/13 03:27:59;;;;;;;47.05;26.90;;;6.90;99.90;;;;;;5055856;28;20422;-66
2022/11/13 03:30:26;;;;;;;100.22;35.90;;;6.80;99.90;;;;;;5055613;28;20047;-65
2022/11/13 03:32:54;;;;;;;37.80;27.60;;;6.90;99.90;;;;;;5055627;28;20021;-63
2022/11/13 03:35:20;;;;;;;42.30;30.30;;;6.80;99.90;;;;;;5055630;28;20116;-66
2022/11/13 03:37:46;;;;;;;33.53;25.08;;;6.70;99.90;;;;;;5055522;28;20047;-67
2022/11/13 03:40:12;;;;;;;56.60;27.73;;;6.70;99.90;;;;;;5055559;28;20072;-64
2022/11/13 03:42:37;;;;;;;74.93;32.72;;;6.70;99.90;;;;;;5055476;28;20043;-65
2022/11/13 03:45:03;;;;;;;104.70;41.05;;;6.80;99.90;;;;;;5055353;28;20361;-64
2022/11/13 03:47:29;;;;;;;47.53;30.80;;;6.80;99.90;;;;;;5055164;28;20032;-66
2022/11/13 03:49:55;;;;;;;39.53;24.40;;;6.80;99.90;;;;;;5055427;28;20021;-64
2022/11/13 03:52:20;;;;;;;61.08;34.15;;;6.80;99.90;;;;;;5055319;28;20025;-64
2022/11/13 03:54:46;;;;;;;38.90;28.77;;;6.80;99.90;;;;;;5055195;28;20036;-67
2022/11/13 03:57:11;;;;;;;51.40;33.33;;;6.80;99.90;;;;;;5055226;28;20111;-67
2022/11/13 03:59:37;;;;;;;31.40;25.13;;;6.70;99.90;;;;;;5055226;28;20379;-62
2022/11/13 04:02:03;;;;;;;38.97;27.27;;;6.70;99.90;;;;;;5054903;28;20032;-64
2022/11/13 04:04:28;;;;;;;29.70;22.50;;;6.70;99.90;;;;;;5055061;28;20421;-62
2022/11/13 04:06:54;;;;;;;32.40;23.65;;;6.70;99.90;;;;;;5055048;28;20021;-64
2022/11/13 04:09:20;;;;;;;46.65;30.60;;;6.70;99.90;;;;;;5054680;28;20027;-68
2022/11/13 04:11:45;;;;;;;35.17;25.50;;;6.80;99.90;;;;;;5055098;28;20025;-65
2022/11/13 04:14:11;;;;;;;51.38;35.72;;;6.70;99.90;;;;;;5054790;28;20024;-64
2022/11/13 04:16:36;;;;;;;49.78;35.38;;;6.70;99.90;;;;;;5054783;28;20028;-68
2022/11/13 04:19:02;;;;;;;39.55;29.88;;;6.60;99.90;;;;;;5054951;28;20060;-69
2022/11/13 04:21:28;;;;;;;70.35;45.22;;;6.60;99.90;;;;;;5055022;28;20029;-65
2022/11/13 04:23:54;;;;;;;43.28;31.13;;;6.60;99.90;;;;;;5054911;28;20045;-67
2022/11/13 04:26:19;;;;;;;53.72;35.08;;;6.60;99.90;;;;;;5054631;28;20471;-66
2022/11/13 04:28:45;;;;;;;68.22;39.55;;;6.60;99.90;;;;;;5054646;28;20028;-64
2022/11/13 04:31:10;;;;;;;37.35;26.77;;;6.60;99.90;;;;;;5054626;28;20017;-68
2022/11/13 04:33:36;;;;;;;70.38;39.28;;;6.60;99.90;;;;;;5054315;28;20505;-68
2022/11/13 04:36:02;;;;;;;51.67;34.05;;;6.60;99.90;;;;;;5054584;28;20025;-63
2022/11/13 04:38:27;;;;;;;53.00;35.47;;;6.70;99.90;;;;;;5054436;28;20021;-62
2022/11/13 04:42:47;;;;;;;49.30;33.25;;;6.70;99.90;;;;;;5054292;28;20044;-62
2022/11/13 04:43:39;;;;;;;32.47;23.70;;;6.60;99.90;;;;;;5054002;28;20028;-66
2022/11/13 04:46:04;;;;;;;36.55;25.42;;;6.50;99.90;;;;;;5054149;28;20047;-63
2022/11/13 04:48:30;;;;;;;40.55;28.63;;;6.60;99.90;;;;;;5054166;28;20018;-66
2022/11/13 04:50:56;;;;;;;52.13;32.05;;;6.60;99.90;;;;;;5054213;28;20071;-67
2022/11/13 04:53:21;;;;;;;40.88;28.58;;;6.60;99.90;;;;;;5053759;28;20479;-66
2022/11/13 04:55:47;;;;;;;43.42;30.40;;;6.60;99.90;;;;;;5053963;28;20107;-67
2022/11/13 04:58:12;;;;;;;45.25;30.60;;;6.60;99.90;;;;;;5054222;28;20061;-69
2022/11/13 05:00:38;;;;;;;66.70;39.38;;;6.50;99.90;;;;;;5053928;28;20045;-63
2022/11/13 05:03:04;;;;;;;94.95;44.33;;;6.50;99.90;;;;;;5054242;28;20083;-69
2022/11/13 05:05:29;;;;;;;39.92;28.30;;;6.40;99.90;;;;;;5053998;28;20075;-64
2022/11/13 05:07:55;;;;;;;33.90;24.80;;;6.30;99.90;;;;;;5053974;28;20029;-68
2022/11/13 05:10:21;;;;;;;41.92;27.23;;;6.30;99.90;;;;;;5053700;28;20076;-64
2022/11/13 05:12:46;;;;;;;40.55;26.48;;;6.40;99.90;;;;;;5053766;28;20104;-70
2022/11/13 05:15:12;;;;;;;44.42;27.85;;;6.50;99.90;;;;;;5053629;28;20488;-67
2022/11/13 05:17:38;;;;;;;37.55;24.25;;;6.60;99.90;;;;;;5053819;28;20523;-61
2022/11/13 05:20:04;;;;;;;35.47;23.50;;;6.60;99.90;;;;;;5053646;28;20391;-70
2022/11/13 05:22:29;;;;;;;53.85;31.95;;;6.60;99.90;;;;;;5053578;28;20379;-62
2022/11/13 05:24:55;;;;;;;49.33;31.30;;;6.60;99.90;;;;;;5053454;28;20021;-69
2022/11/13 05:27:21;;;;;;;80.78;38.65;;;6.60;99.90;;;;;;5053520;28;20021;-65
2022/11/13 05:29:46;;;;;;;43.00;27.63;;;6.60;99.90;;;;;;5053316;28;20029;-64
2022/11/13 05:32:12;;;;;;;74.25;40.03;;;6.60;99.90;;;;;;5053473;28;20107;-63
2022/11/13 05:34:38;;;;;;;71.13;35.45;;;6.60;99.90;;;;;;5053295;28;20020;-64
2022/11/13 05:37:03;;;;;;;58.72;34.38;;;6.60;99.90;;;;;;5053459;28;20427;-63
2022/11/13 05:39:29;;;;;;;31.90;22.55;;;6.60;99.90;;;;;;5053265;28;20078;-67
2022/11/13 05:41:55;;;;;;;50.67;30.55;;;6.60;99.90;;;;;;5053370;28;20383;-69
2022/11/13 05:44:20;;;;;;;43.08;26.80;;;6.60;99.90;;;;;;5052899;28;20556;-63
2022/11/13 05:46:46;;;;;;;38.85;24.73;;;6.70;99.90;;;;;;5053306;28;20100;-65
2022/11/13 05:49:11;;;;;;;58.65;32.50;;;6.70;99.90;;;;;;5053185;28;20029;-67
2022/11/13 05:51:37;;;;;;;48.38;28.35;;;6.70;99.90;;;;;;5053133;28;20025;-62
2022/11/13 05:54:03;;;;;;;52.05;27.77;;;6.70;99.90;;;;;;5053280;28;20035;-68
2022/11/13 05:56:32;;;;;;;85.60;45.95;;;6.70;99.90;;;;;;5053182;28;20036;-66
2022/11/13 05:58:58;;;;;;;201.82;67.30;;;6.70;99.90;;;;;;5052865;28;20025;-63
2022/11/13 06:01:36;;;;;;;109.78;50.20;;;6.60;99.90;;;;;;5053156;28;20025;-62
2022/11/13 06:04:03;;;;;;;144.13;61.83;;;6.50;99.90;;;;;;5052987;28;20533;-61
2022/11/13 06:06:29;;;;;;;65.35;39.97;;;6.50;99.90;;;;;;5056348;28;20048;-66
2022/11/13 06:08:57;;;;;;;53.33;36.63;;;6.60;99.90;;;;;;5057351;28;20021;-63
2022/11/13 06:11:25;;;;;;;124.57;50.75;;;6.60;99.90;;;;;;5057124;28;20049;-66
2022/11/13 06:13:52;;;;;;;106.63;47.88;;;6.70;99.90;;;;;;5057079;28;20021;-65
2022/11/13 06:16:27;;;;;;;47.42;32.15;;;6.60;99.90;;;;;;5057129;28;20382;-69
2022/11/13 06:18:57;;;;;;;99.30;41.30;;;6.60;99.90;;;;;;5057024;28;20017;-69
2022/11/13 06:21:25;;;;;;;80.80;38.00;;;6.60;99.90;;;;;;5057073;28;20104;-68
2022/11/13 06:23:51;;;;;;;41.22;28.33;;;6.50;99.90;;;;;;5056966;28;20091;-68
2022/11/13 06:26:23;;;;;;;45.65;31.10;;;6.70;99.90;;;;;;5056840;28;20487;-63
2022/11/13 06:28:48;;;;;;;49.95;31.80;;;6.70;99.90;;;;;;5056799;28;20031;-65
2022/11/13 06:31:23;;;;;;;47.33;31.95;;;6.80;99.90;;;;;;5056829;28;20025;-67
2022/11/13 06:33:49;;;;;;;69.22;36.50;;;6.80;99.90;;;;;;5056670;28;20029;-63
2022/11/13 06:36:17;;;;;;;43.10;29.50;;;6.80;99.90;;;;;;5056894;28;20021;-64
2022/11/13 06:38:43;;;;;;;41.63;29.52;;;6.80;99.90;;;;;;5056722;28;20027;-68
2022/11/13 06:41:11;;;;;;;41.83;30.30;;;6.90;99.90;;;;;;5056502;28;20446;-68
2022/11/13 06:43:37;;;;;;;69.40;36.67;;;6.90;99.90;;;;;;5056370;28;20112;-67
2022/11/13 06:46:05;;;;;;;54.40;34.03;;;6.90;99.90;;;;;;5056627;28;20025;-66
2022/11/13 06:48:31;;;;;;;251.95;76.43;;;6.80;99.90;;;;;;5056469;28;20029;-68
2022/11/13 06:51:01;;;;;;;49.58;36.15;;;6.50;99.90;;;;;;5056345;28;20472;-64
2022/11/13 06:53:27;;;;;;;73.65;40.60;;;6.30;99.90;;;;;;5054978;28;20467;-64
2022/11/13 06:55:53;;;;;;;46.97;29.52;;;6.40;99.90;;;;;;5056192;28;20032;-66
2022/11/13 06:58:19;;;;;;;36.83;25.30;;;6.40;99.90;;;;;;5056343;28;20021;-66
2022/11/13 07:00:44;;;;;;;32.22;24.13;;;6.50;99.90;;;;;;5056326;28;20024;-65
2022/11/13 07:03:18;;;;;;;36.97;23.55;;;6.60;99.90;;;;;;5056173;28;20112;-67
2022/11/13 07:05:45;;;;;;;29.65;21.23;;;6.80;99.90;;;;;;5056228;28;20029;-65
2022/11/13 07:08:12;;;;;;;58.10;24.30;;;6.90;99.90;;;;;;5056256;28;20025;-64
2022/11/13 07:10:38;;;;;;;32.38;20.80;;;7.00;99.90;;;;;;5055707;28;20049;-64
2022/11/13 07:13:04;;;;;;;24.98;18.85;;;7.20;99.90;;;;;;5056180;28;20017;-63
2022/11/13 07:15:36;;;;;;;22.63;17.88;;;7.30;99.90;;;;;;5055957;28;20579;-67
2022/11/13 07:18:03;;;;;;;30.08;22.40;;;7.40;99.90;;;;;;5056120;28;20029;-66
2022/11/13 07:20:29;;;;;;;35.10;25.73;;;7.60;99.90;;;;;;5055930;28;20360;-69
2022/11/13 07:22:59;;;;;;;28.83;20.70;;;7.70;99.90;;;;;;5055862;28;20033;-65
2022/11/13 07:25:26;;;;;;;34.63;24.52;;;8.00;99.90;;;;;;5056007;28;20036;-64
2022/11/13 07:27:51;;;;;;;29.33;22.67;;;9.20;99.90;;;;;;5055782;28;20013;-63
2022/11/13 07:30:17;;;;;;;30.67;23.65;;;10.40;99.90;;;;;;5055750;28;20021;-66
2022/11/13 07:32:43;;;;;;;31.95;25.42;;;10.50;99.90;;;;;;5055935;28;20464;-69
2022/11/13 07:35:09;;;;;;;35.40;26.83;;;10.30;99.90;;;;;;5055765;28;20127;-66
2022/11/13 07:37:35;;;;;;;29.00;23.33;;;10.10;99.90;;;;;;5055672;28;20056;-67
2022/11/13 07:40:03;;;;;;;31.17;23.90;;;10.20;99.90;;;;;;5054128;28;20056;-68
2022/11/13 07:42:28;;;;;;;24.80;22.17;;;11.10;99.90;;;;;;5055644;28;20013;-65
2022/11/13 07:44:54;;;;;;;30.80;24.02;;;12.00;99.90;;;;;;5054215;28;20059;-69
2022/11/13 07:47:19;;;;;;;38.00;29.90;;;12.70;97.80;;;;;;5055350;28;20061;-63
2022/11/13 07:49:45;;;;;;;30.83;27.17;;;12.10;98.40;;;;;;5055336;28;20025;-67
2022/11/13 07:52:11;;;;;;;39.20;28.35;;;11.50;98.40;;;;;;5055384;28;20467;-64
2022/11/13 07:54:36;;;;;;;40.65;30.08;;;10.90;99.90;;;;;;5055031;28;20402;-67
2022/11/13 07:57:02;;;;;;;43.83;33.97;;;10.40;99.90;;;;;;5055240;28;20021;-64
2022/11/13 07:59:28;;;;;;;56.00;37.88;;;9.90;99.90;;;;;;5055204;28;20017;-62
2022/11/13 08:01:53;;;;;;;40.78;32.00;;;9.50;99.90;;;;;;5055172;28;20123;-65
2022/11/13 08:04:19;;;;;;;42.55;33.58;;;9.20;99.90;;;;;;5053755;28;20383;-63
2022/11/13 08:06:45;;;;;;;67.05;44.70;;;9.40;99.90;;;;;;5055061;28;20051;-63
2022/11/13 08:09:10;;;;;;;44.28;35.20;;;9.60;99.90;;;;;;5053441;28;20060;-63
2022/11/13 08:11:36;;;;;;;51.78;39.28;;;9.40;99.90;;;;;;5054955;28;20029;-64
2022/11/13 08:14:01;;;;;;;58.40;40.28;;;9.40;99.90;;;;;;5054881;28;20086;-68
2022/11/13 08:16:27;;;;;;;44.33;34.45;;;9.30;99.90;;;;;;5054926;28;20025;-60
2022/11/13 08:18:53;;;;;;;51.25;36.17;;;9.10;99.90;;;;;;5054904;28;20021;-65
2022/11/13 08:21:20;;;;;;;46.75;34.88;;;9.10;99.90;;;;;;5054738;28;20021;-62
2022/11/13 08:23:46;;;;;;;52.53;35.22;;;8.90;99.90;;;;;;5054792;28;20041;-65
2022/11/13 08:26:12;;;;;;;61.65;41.47;;;9.00;99.90;;;;;;5054674;28;20027;-66
2022/11/13 08:28:38;;;;;;;55.05;37.33;;;8.90;99.90;;;;;;5053781;28;20021;-67
2022/11/13 08:31:08;;;;;;;53.00;35.72;;;8.90;99.90;;;;;;5054839;28;20025;-69
2022/11/13 08:33:34;;;;;;;52.20;33.72;;;9.20;99.90;;;;;;5054488;28;20060;-63
2022/11/13 08:36:00;;;;;;;60.22;34.78;;;9.30;99.90;;;;;;5054643;28;20052;-65
2022/11/13 08:38:26;;;;;;;54.40;34.85;;;9.50;99.90;;;;;;5054328;28;20028;-67
2022/11/13 08:40:55;;;;;;;63.65;42.45;;;9.80;99.90;;;;;;5054429;28;20094;-63
2022/11/13 08:43:20;;;;;;;54.92;38.35;;;10.10;99.90;;;;;;5054370;28;20035;-68
2022/11/13 08:45:46;;;;;;;92.40;59.00;;;10.50;99.90;;;;;;5054297;28;20103;-68
2022/11/13 08:48:12;;;;;;;57.55;40.25;;;10.70;99.90;;;;;;5054281;28;20051;-64
2022/11/13 08:50:38;;;;;;;59.90;41.38;;;10.90;99.90;;;;;;5053030;28;20078;-69
2022/11/13 08:53:04;;;;;;;50.58;39.33;;;11.10;99.90;;;;;;5054294;28;20025;-70
2022/11/13 08:55:31;;;;;;;43.38;34.45;;;11.20;99.90;;;;;;5054220;28;20032;-68
2022/11/13 08:57:59;;;;;;;56.75;36.88;;;11.20;99.90;;;;;;5054090;28;20021;-69
2022/11/13 09:00:25;;;;;;;46.50;33.47;;;11.30;99.90;;;;;;5052765;28;20441;-69
2022/11/13 09:02:55;;;;;;;58.40;36.80;;;11.30;99.90;;;;;;5054097;28;20028;-64
2022/11/13 09:05:21;;;;;;;50.55;34.75;;;11.30;99.90;;;;;;5053842;28;20083;-64
2022/11/13 09:07:47;;;;;;;44.67;30.75;;;11.00;99.90;;;;;;5054255;28;20017;-69
2022/11/13 09:10:12;;;;;;;53.22;31.98;;;11.10;99.90;;;;;;5053827;28;20048;-67
2022/11/13 09:12:38;;;;;;;39.97;26.95;;;11.30;99.90;;;;;;5054026;28;20110;-65
2022/11/13 09:15:04;;;;;;;39.38;27.27;;;11.10;99.90;;;;;;5053775;28;20418;-64
2022/11/13 09:17:31;;;;;;;50.33;31.15;;;11.10;99.90;;;;;;5054004;28;20099;-67
2022/11/13 09:19:57;;;;;;;58.45;33.53;;;11.40;99.90;;;;;;5053705;28;20025;-64
2022/11/13 09:22:22;;;;;;;50.88;31.92;;;11.60;99.90;;;;;;5053640;28;20021;-64
2022/11/13 09:24:48;;;;;;;73.45;40.80;;;11.60;99.90;;;;;;5053824;28;20529;-67
2022/11/13 09:27:14;;;;;;;58.33;35.92;;;11.60;99.90;;;;;;5053491;28;20029;-68
2022/11/13 09:29:39;;;;;;;85.97;48.83;;;11.50;99.90;;;;;;5053525;28;20021;-66
2022/11/13 09:32:05;;;;;;;83.60;47.05;;;11.50;99.90;;;;;;5053463;28;20025;-66
2022/11/13 09:34:32;;;;;;;94.95;51.65;;;11.70;99.90;;;;;;5053495;28;20032;-65
2022/11/13 09:36:58;;;;;;;97.13;51.53;;;11.80;99.90;;;;;;5053248;28;20528;-65
2022/11/13 09:39:24;;;;;;;91.68;49.28;;;12.00;99.90;;;;;;5052045;28;20033;-65
2022/11/13 09:42:23;;;;;;;79.53;47.20;;;12.30;99.90;;;;;;5053324;28;20017;-64
2022/11/13 09:44:54;;;;;;;71.65;45.13;;;12.60;99.90;;;;;;5052970;28;20044;-68
2022/11/13 09:47:36;;;;;;;78.10;47.92;;;12.80;99.90;;;;;;5053232;28;20475;-64
2022/11/13 09:50:04;;;;;;;73.93;46.85;;;13.10;99.90;;;;;;5053125;28;20028;-67
2022/11/13 09:52:39;;;;;;;72.63;47.28;;;13.30;99.90;;;;;;5053071;28;20496;-64
2022/11/13 09:55:10;;;;;;;60.95;44.33;;;13.60;99.90;;;;;;5053249;28;20060;-67
2022/11/13 09:57:57;;;;;;;55.72;40.83;;;13.80;99.90;;;;;;5053201;28;20022;-64
2022/11/13 10:00:23;;;;;;;51.67;36.47;;;14.10;99.90;;;;;;5053186;28;20475;-65
2022/11/13 10:03:00;;;;;;;57.63;37.85;;;14.50;98.10;;;;;;5053194;28;20056;-65
2022/11/13 10:05:25;;;;;;;57.13;38.65;;;14.80;99.90;;;;;;5052987;28;20030;-61
2022/11/13 10:08:05;;;;;;;50.63;35.97;;;14.90;97.20;;;;;;5053040;28;20032;-67
2022/11/13 10:10:46;;;;;;;50.95;36.85;;;15.10;97.30;;;;;;5052885;28;20056;-69
2022/11/13 10:13:18;;;;;;;56.80;38.40;;;15.40;91.70;;;;;;5053103;28;20040;-65
2022/11/13 10:15:48;;;;;;;66.63;48.00;;;15.60;91.60;;;;;;5053012;28;20025;-70
2022/11/13 10:18:24;;;;;;;60.08;44.03;;;15.80;88.30;;;;;;5053164;28;20251;-65
2022/11/13 10:20:59;;;;;;;56.05;41.58;;;16.00;86.60;;;;;;5052806;28;20017;-67
2022/11/13 10:23:31;;;;;;;51.85;40.65;;;16.10;84.40;;;;;;5053175;28;20017;-64
2022/11/13 10:26:13;;;;;;;50.15;38.30;;;16.30;82.40;;;;;;5052945;28;20023;-69
2022/11/13 10:28:40;;;;;;;45.03;35.85;;;16.50;81.90;;;;;;5053064;28;20096;-65
2022/11/13 10:31:09;;;;;;;54.33;37.97;;;16.60;79.40;;;;;;5052911;28;20025;-69
2022/11/13 10:33:35;;;;;;;47.85;35.78;;;16.50;82.80;;;;;;5052654;28;20036;-65
2022/11/13 10:36:38;;;;;;;45.17;32.65;;;16.50;89.50;;;;;;5052846;28;20029;-69
2022/11/13 10:39:07;;;;;;;60.25;38.40;;;16.60;90.40;;;;;;5052874;28;20279;-64
2022/11/13 10:41:43;;;;;;;47.55;35.35;;;16.50;80.90;;;;;;5052813;28;20028;-63
2022/11/13 10:44:21;;;;;;;47.17;35.95;;;16.50;80.60;;;;;;5052613;28;20029;-65
2022/11/13 10:46:47;;;;;;;42.92;32.47;;;16.90;79.40;;;;;;5052688;28;20060;-64
2022/11/13 10:49:15;;;;;;;50.13;32.83;;;17.20;77.50;;;;;;5052607;28;20060;-63
2022/11/13 10:51:41;;;;;;;46.88;32.13;;;17.00;75.20;;;;;;5054364;28;20609;-65
2022/11/13 10:54:23;;;;;;;39.78;30.73;;;16.60;76.00;;;;;;5056531;28;20068;-68
2022/11/13 10:57:03;;;;;;;46.50;33.97;;;16.80;81.20;;;;;;5056379;28;20091;-61
2022/11/13 10:59:41;;;;;;;40.55;30.25;;;17.30;76.10;;;;;;5056374;28;20028;-64
2022/11/13 11:02:27;;;;;;;33.88;26.17;;;17.70;73.10;;;;;;5056242;28;20495;-65
2022/11/13 11:05:20;;;;;;;29.45;22.80;;;18.00;73.20;;;;;;5055967;28;20033;-65
2022/11/13 11:07:45;;;;;;;37.63;28.52;;;18.30;68.10;;;;;;5056225;28;20029;-63
2022/11/13 11:10:33;;;;;;;35.22;27.10;;;18.30;67.30;;;;;;5056027;28;20056;-67
2022/11/13 11:13:10;;;;;;;32.25;24.45;;;18.30;69.00;;;;;;5056109;28;20021;-66
2022/11/13 11:15:44;;;;;;;28.38;23.88;;;18.40;70.10;;;;;;5055983;28;20025;-69
2022/11/13 11:18:28;;;;;;;26.10;20.92;;;18.60;67.90;;;;;;5055872;28;20112;-66
2022/11/13 11:21:00;;;;;;;22.67;19.52;;;18.90;67.30;;;;;;5055923;28;20028;-69
2022/11/13 11:23:39;;;;;;;22.70;19.98;;;19.10;66.70;;;;;;5055917;28;20105;-65
2022/11/13 11:26:07;;;;;;;22.55;18.77;;;19.10;67.50;;;;;;5055763;28;20029;-63
2022/11/13 11:28:50;;;;;;;21.25;18.65;;;19.20;66.00;;;;;;5055870;28;20039;-67
2022/11/13 11:31:38;;;;;;;19.23;16.35;;;19.40;64.70;;;;;;5055915;28;20352;-66
2022/11/13 11:34:18;;;;;;;17.73;15.48;;;19.60;65.20;;;;;;5055851;28;20067;-65
2022/11/13 11:37:09;;;;;;;15.90;14.25;;;20.00;61.90;;;;;;5055674;28;20029;-67
2022/11/13 11:39:53;;;;;;;18.55;14.60;;;20.20;65.30;;;;;;5055625;28;20029;-68
2022/11/13 11:42:21;;;;;;;16.77;14.98;;;20.50;61.50;;;;;;5055567;28;20028;-65
2022/11/13 11:44:56;;;;;;;15.43;12.88;;;20.40;61.80;;;;;;5055490;28;20391;-67
2022/11/13 11:47:22;;;;;;;14.23;12.32;;;20.50;60.50;;;;;;5055284;28;20090;-67
2022/11/13 11:49:48;;;;;;;16.55;14.75;;;20.70;62.50;;;;;;5055551;28;20099;-67
2022/11/13 11:53:05;;;;;;;17.15;15.35;;;20.70;59.30;;;;;;5055370;28;20407;-63
2022/11/13 11:55:56;;;;;;;15.90;14.20;;;20.80;58.00;;;;;;5053183;28;20028;-66
2022/11/13 11:59:03;;;;;;;14.23;12.63;;;20.80;57.90;;;;;;5053245;28;20032;-69
2022/11/13 12:01:42;;;;;;;26.35;21.35;;;20.90;59.70;;;;;;5055085;28;20036;-64
2022/11/13 12:04:35;;;;;;;26.33;20.23;;;20.80;56.40;;;;;;5053859;28;20025;-66
2022/11/13 12:07:32;;;;;;;22.17;17.65;;;20.50;59.00;;;;;;5055151;28;20093;-68
2022/11/13 12:10:16;;;;;;;40.35;25.77;;;20.50;56.90;;;;;;5055020;28;20044;-65
2022/11/13 12:12:51;;;;;;;40.70;26.17;;;20.50;60.10;;;;;;5055181;28;20483;-67
2022/11/13 12:15:24;;;;;;;43.55;25.17;;;20.30;59.90;;;;;;5054714;28;20028;-62
2022/11/13 12:18:01;;;;;;;30.35;21.80;;;20.40;60.70;;;;;;5054847;28;20022;-64
2022/11/13 12:20:40;;;;;;;27.90;19.40;;;20.50;59.60;;;;;;5054877;28;20021;-67
2022/11/13 12:24:00;;;;;;;23.77;17.20;;;20.70;60.20;;;;;;5054780;28;20025;-65
2022/11/13 12:26:28;;;;;;;21.50;17.27;;;20.70;58.90;;;;;;5052733;28;20119;-66
2022/11/13 12:29:27;;;;;;;26.20;18.77;;;21.00;57.50;;;;;;5054750;28;20033;-63
2022/11/13 12:31:56;;;;;;;25.75;19.33;;;21.10;58.60;;;;;;5054533;28;20486;-67
2022/11/13 12:34:43;;;;;;;25.40;19.05;;;20.70;58.80;;;;;;5054624;28;20025;-62
2022/11/13 12:37:14;;;;;;;24.05;17.48;;;20.70;57.30;;;;;;5054601;28;20393;-65
2022/11/13 12:39:57;;;;;;;27.52;21.05;;;20.80;59.40;;;;;;5054588;28;20425;-66
2022/11/13 12:42:33;;;;;;;21.73;18.00;;;21.00;57.40;;;;;;5054480;28;20025;-68
2022/11/13 12:45:37;;;;;;;20.70;16.10;;;21.00;57.90;;;;;;5054046;28;20072;-65